createdAt,value
2023-01-17T00:00:46.545Z,97901.31
2023-01-17T00:04:33.264Z,97893.98
2023-01-17T00:08:18.029Z,97882.95
2023-01-17T00:11:45.944Z,97888.20
2023-01-17T00:15:17.400Z,97898.38
2023-01-17T00:19:05.576Z,97900.80
2023-01-17T00:22:47.927Z,97890.92
2023-01-17T00:26:20.901Z,97886.31
2023-01-17T00:29:48.868Z,97877.73
2023-01-17T00:33:15.062Z,97868.23
2023-01-17T00:36:41.193Z,97862.94
2023-01-17T00:40:09.440Z,97856.44
2023-01-17T00:43:55.229Z,97849.95
2023-01-17T00:47:43.121Z,97839.55
2023-01-17T00:51:28.168Z,97825.89
2023-01-17T00:55:14.948Z,97815.45
2023-01-17T00:59:00.114Z,97805.19
2023-01-17T01:02:45.223Z,97798.86
2023-01-17T01:06:30.505Z,97793.02
2023-01-17T01:10:15.764Z,97795.45
2023-01-17T01:14:00.855Z,97794.70
2023-01-17T01:17:44.997Z,97794.28
2023-01-17T01:21:29.735Z,97787.98
2023-01-17T01:25:14.844Z,97790.08
2023-01-17T01:28:58.797Z,97784.10
2023-01-17T01:32:43.329Z,97778.29
2023-01-17T01:36:12.999Z,97764.08
2023-01-17T01:39:40.200Z,97749.17
2023-01-17T01:43:08.929Z,97748.83
2023-01-17T01:46:41.575Z,97743.84
2023-01-17T01:50:14.030Z,97747.68
2023-01-17T01:53:50.250Z,97737.39
2023-01-17T01:57:24.056Z,97723.55
2023-01-17T02:00:54.305Z,97721.54
2023-01-17T02:04:24.749Z,97720.55
2023-01-17T02:07:59.332Z,97716.84
2023-01-17T02:11:27.262Z,97703.24
2023-01-17T02:14:54.552Z,97691.98
2023-01-17T02:18:32.915Z,97684.94
2023-01-17T02:22:08.968Z,97671.82
2023-01-17T02:25:55.146Z,97671.88
2023-01-17T02:30:00.769Z,97661.09
2023-01-17T02:33:36.119Z,97653.96
2023-01-17T02:37:09.515Z,97640.70
2023-01-17T02:40:42.354Z,97638.18
2023-01-17T02:44:13.322Z,97636.14
2023-01-17T02:47:40.849Z,97634.89
2023-01-17T02:51:33.574Z,97635.48
2023-01-17T02:55:22.908Z,97626.91
2023-01-17T02:59:05.371Z,97624.50
2023-01-17T03:02:42.359Z,97621.65
2023-01-17T03:06:16.396Z,97621.90
2023-01-17T03:09:46.090Z,97618.96
2023-01-17T03:13:17.406Z,97617.83
2023-01-17T03:16:44.644Z,97615.87
2023-01-17T03:20:13.593Z,97613.52
2023-01-17T03:23:40.816Z,97602.73
2023-01-17T03:27:07.623Z,97586.70
2023-01-17T03:30:35.120Z,97592.36
2023-01-17T03:34:02.227Z,97594.75
2023-01-17T03:37:28.988Z,97594.07
2023-01-17T03:40:55.780Z,97591.02
2023-01-17T03:44:22.662Z,97590.52
2023-01-17T03:47:49.131Z,97585.25
2023-01-17T03:51:16.054Z,97581.45
2023-01-17T03:54:43.084Z,97579.02
2023-01-17T03:58:11.078Z,97578.36
2023-01-17T04:01:37.968Z,97574.13
2023-01-17T04:05:05.569Z,97573.13
2023-01-17T04:08:31.946Z,97563.53
2023-01-17T04:11:58.523Z,97558.36
2023-01-17T04:15:25.437Z,97556.11
2023-01-17T04:18:52.405Z,97556.48
2023-01-17T04:22:18.940Z,97553.00
2023-01-17T04:25:45.676Z,97544.72
2023-01-17T04:29:12.619Z,97540.14
2023-01-17T04:32:39.274Z,97530.39
2023-01-17T04:36:06.242Z,97527.02
2023-01-17T04:39:33.324Z,97531.09
2023-01-17T04:42:59.734Z,97531.45
2023-01-17T04:46:27.045Z,97535.63
2023-01-17T04:49:54.088Z,97538.78
2023-01-17T04:53:20.527Z,97540.95
2023-01-17T04:56:47.070Z,97545.88
2023-01-17T05:00:17.375Z,97545.84
2023-01-17T05:03:44.055Z,97548.39
2023-01-17T05:07:10.547Z,97539.20
2023-01-17T05:10:37.320Z,97540.70
2023-01-17T05:14:04.195Z,97544.29
2023-01-17T05:17:31.233Z,97550.67
2023-01-17T05:21:01.994Z,97548.45
2023-01-17T05:24:28.931Z,97545.80
2023-01-17T05:27:56.748Z,97538.58
2023-01-17T05:31:23.465Z,97547.61
2023-01-17T05:34:51.724Z,97545.71
2023-01-17T05:38:19.072Z,97542.89
2023-01-17T05:41:45.547Z,97549.38
2023-01-17T05:45:16.984Z,97544.45
2023-01-17T05:48:43.994Z,97541.23
2023-01-17T05:52:11.314Z,97545.38
2023-01-17T05:55:38.943Z,97542.78
2023-01-17T05:59:05.562Z,97542.70
2023-01-17T06:02:32.889Z,97542.39
2023-01-17T06:05:59.491Z,97549.05
2023-01-17T06:09:26.656Z,97547.38
2023-01-17T06:13:01.532Z,97547.33
2023-01-17T06:16:28.067Z,97546.61
2023-01-17T06:19:55.181Z,97545.24
2023-01-17T06:23:21.872Z,97545.77
2023-01-17T06:26:48.801Z,97551.07
2023-01-17T06:30:17.911Z,97549.52
2023-01-17T06:33:44.514Z,97546.16
2023-01-17T06:37:12.002Z,97549.45
2023-01-17T06:40:38.301Z,97549.35
2023-01-17T06:44:05.506Z,97550.23
2023-01-17T06:47:32.757Z,97551.56
2023-01-17T06:51:00.218Z,97549.69
2023-01-17T06:54:27.334Z,97557.14
2023-01-17T06:57:55.085Z,97558.55
2023-01-17T07:01:22.148Z,97556.83
2023-01-17T07:04:49.282Z,97560.99
2023-01-17T07:08:17.164Z,97559.14
2023-01-17T07:11:45.575Z,97565.39
2023-01-17T07:15:14.793Z,97563.62
2023-01-17T07:18:40.978Z,97566.41
2023-01-17T07:22:08.140Z,97570.16
2023-01-17T07:25:35.280Z,97573.27
2023-01-17T07:29:04.030Z,97576.98
2023-01-17T07:32:30.841Z,97577.25
2023-01-17T07:35:57.526Z,97579.29
2023-01-17T07:39:27.664Z,97583.86
2023-01-17T07:43:01.657Z,97580.45
2023-01-17T07:46:28.830Z,97580.23
2023-01-17T07:49:55.415Z,97575.23
2023-01-17T07:53:22.634Z,97574.40
2023-01-17T07:56:49.462Z,97574.79
2023-01-17T08:00:18.338Z,97576.86
2023-01-17T08:03:45.917Z,97585.01
2023-01-17T08:07:14.184Z,97583.92
2023-01-17T08:10:41.041Z,97587.09
2023-01-17T08:14:07.959Z,97587.79
2023-01-17T08:17:34.845Z,97598.36
2023-01-17T08:21:02.634Z,97603.48
2023-01-17T08:24:30.324Z,97602.13
2023-01-17T08:28:00.872Z,97602.38
2023-01-17T08:31:28.355Z,97607.05
2023-01-17T08:34:56.750Z,97608.36
2023-01-17T08:38:24.803Z,97612.05
2023-01-17T08:41:52.007Z,97613.48
2023-01-17T08:45:18.670Z,97611.61
2023-01-17T08:48:45.389Z,97609.30
2023-01-17T08:52:15.838Z,97611.88
2023-01-17T08:55:42.414Z,97612.52
2023-01-17T08:59:09.553Z,97616.52
2023-01-17T09:02:36.543Z,97613.58
2023-01-17T09:06:09.583Z,97620.08
2023-01-17T09:09:36.253Z,97624.70
2023-01-17T09:13:07.034Z,97631.33
2023-01-17T09:16:34.233Z,97638.52
2023-01-17T09:20:04.288Z,97632.75
2023-01-17T09:23:33.066Z,97633.39
2023-01-17T09:27:00.314Z,97634.57
2023-01-17T09:30:27.184Z,97633.27
2023-01-17T09:34:01.015Z,97635.17
2023-01-17T09:37:28.910Z,97638.17
2023-01-17T09:40:57.821Z,97638.65
2023-01-17T09:44:33.039Z,97635.89
2023-01-17T09:48:07.383Z,97634.59
2023-01-17T09:51:33.910Z,97642.74
2023-01-17T09:55:04.975Z,97645.95
2023-01-17T09:58:42.910Z,97644.89
2023-01-17T10:02:26.700Z,97644.49
2023-01-17T10:05:57.655Z,97650.98
2023-01-17T10:09:47.103Z,97656.82
2023-01-17T10:13:30.243Z,97660.18
2023-01-17T10:17:05.851Z,97656.82
2023-01-17T10:20:48.524Z,97655.85
2023-01-17T10:24:47.114Z,97658.53
2023-01-17T10:28:18.673Z,97652.34
2023-01-17T10:31:52.038Z,97657.83
2023-01-17T10:35:25.074Z,97652.80
2023-01-17T10:38:53.869Z,97655.84
2023-01-17T10:42:27.469Z,97656.63
2023-01-17T10:45:57.426Z,97651.48
2023-01-17T10:49:27.466Z,97650.23
2023-01-17T10:53:01.575Z,97653.23
2023-01-17T10:56:31.421Z,97654.40
2023-01-17T11:00:01.969Z,97652.53
2023-01-17T11:03:29.102Z,97651.04
2023-01-17T11:07:14.401Z,97655.33
2023-01-17T11:10:43.705Z,97656.23
2023-01-17T11:14:20.845Z,97659.73
2023-01-17T11:17:53.398Z,97650.27
2023-01-17T11:21:23.584Z,97656.38
2023-01-17T11:24:55.734Z,97655.27
2023-01-17T11:28:30.775Z,97652.27
2023-01-17T11:31:58.275Z,97652.63
2023-01-17T11:35:26.868Z,97651.88
2023-01-17T11:39:03.601Z,97653.38
2023-01-17T11:42:38.230Z,97646.98
2023-01-17T11:46:16.052Z,97648.38
2023-01-17T11:49:43.969Z,97650.30
2023-01-17T11:53:21.318Z,97652.52
2023-01-17T11:56:47.957Z,97654.58
2023-01-17T12:00:21.033Z,97662.13
2023-01-17T12:04:08.332Z,97663.81
2023-01-17T12:07:45.605Z,97673.88
2023-01-17T12:11:22.265Z,97669.80
2023-01-17T12:15:01.396Z,97676.23
2023-01-17T12:18:45.519Z,97678.49
2023-01-17T12:22:33.992Z,97678.79
2023-01-17T12:26:19.851Z,97684.98
2023-01-17T12:29:58.959Z,97682.13
2023-01-17T12:33:35.953Z,97685.04
2023-01-17T12:37:09.542Z,97689.58
2023-01-17T12:40:38.506Z,97690.02
2023-01-17T12:44:05.211Z,97689.39
2023-01-17T12:47:34.845Z,97695.21
2023-01-17T12:51:06.792Z,97698.61
2023-01-17T12:54:41.174Z,97703.24
2023-01-17T12:58:16.619Z,97706.55
2023-01-17T13:01:45.294Z,97706.11
2023-01-17T13:05:23.973Z,97701.18
2023-01-17T13:08:53.140Z,97705.55
2023-01-17T13:12:22.849Z,97712.06
2023-01-17T13:15:51.739Z,97715.06
2023-01-17T13:19:26.487Z,97716.14
2023-01-17T13:22:57.081Z,97721.14
2023-01-17T13:26:33.888Z,97723.27
2023-01-17T13:30:13.194Z,97731.70
2023-01-17T13:33:50.243Z,97740.55
2023-01-17T13:37:47.331Z,97749.93
2023-01-17T13:41:48.400Z,97756.08
2023-01-17T13:45:23.581Z,97759.15
2023-01-17T13:49:11.329Z,97765.59
2023-01-17T13:52:38.955Z,97759.58
2023-01-17T13:56:17.028Z,97763.21
2023-01-17T13:59:44.016Z,97770.81
2023-01-17T14:03:14.607Z,97780.39
2023-01-17T14:06:45.554Z,97784.95
2023-01-17T14:10:32.283Z,97790.38
2023-01-17T14:14:00.710Z,97795.77
2023-01-17T14:17:56.872Z,97802.02
2023-01-17T14:21:27.346Z,97804.99
2023-01-17T14:25:10.154Z,97815.23
2023-01-17T14:28:37.006Z,97819.46
2023-01-17T14:32:07.769Z,97828.56
2023-01-17T14:35:37.559Z,97834.34
2023-01-17T14:39:04.731Z,97839.17
2023-01-17T14:42:34.507Z,97838.52
2023-01-17T14:46:03.768Z,97845.52
2023-01-17T14:49:30.663Z,97848.01
2023-01-17T14:53:16.654Z,97858.66
2023-01-17T14:56:46.818Z,97858.81
2023-01-17T15:00:19.177Z,97863.83
2023-01-17T15:03:48.410Z,97873.53
2023-01-17T15:07:20.369Z,97880.88
2023-01-17T15:10:56.333Z,97888.08
2023-01-17T15:14:28.475Z,97893.05
2023-01-17T15:18:09.432Z,97894.61
2023-01-17T15:21:42.636Z,97897.08
2023-01-17T15:25:15.449Z,97896.41
2023-01-17T15:28:45.060Z,97901.26
2023-01-17T15:32:21.996Z,97897.79
2023-01-17T15:35:49.039Z,97900.20
2023-01-17T15:39:25.706Z,97902.15
2023-01-17T15:43:01.744Z,97911.89
2023-01-17T15:46:34.736Z,97917.82
2023-01-17T15:50:03.624Z,97923.59
2023-01-17T15:53:39.422Z,97931.27
2023-01-17T15:57:18.358Z,97932.06
2023-01-17T16:00:47.289Z,97941.76
2023-01-17T16:04:30.494Z,97951.45
2023-01-17T16:08:19.082Z,97958.02
2023-01-17T16:11:49.669Z,97960.89
2023-01-17T16:15:19.289Z,97967.66
2023-01-17T16:18:51.107Z,97972.69
2023-01-17T16:22:21.141Z,97972.44
2023-01-17T16:25:56.851Z,97976.51
2023-01-17T16:29:24.066Z,97982.91
2023-01-17T16:32:54.188Z,97986.94
2023-01-17T16:36:23.372Z,97998.82
2023-01-17T16:39:54.140Z,98006.75
2023-01-17T16:43:31.714Z,98013.35
2023-01-17T16:47:03.344Z,98011.87
2023-01-17T16:50:48.883Z,98017.52
2023-01-17T16:54:15.794Z,98022.84
2023-01-17T16:57:43.783Z,98022.91
2023-01-17T17:01:17.976Z,98025.80
2023-01-17T17:04:48.008Z,98026.27
2023-01-17T17:08:16.716Z,98030.38
2023-01-17T17:11:44.576Z,98028.09
2023-01-17T17:15:13.479Z,98027.59
2023-01-17T17:18:40.520Z,98026.79
2023-01-17T17:22:07.951Z,98023.32
2023-01-17T17:25:35.107Z,98023.66
2023-01-17T17:29:02.928Z,98021.23
2023-01-17T17:32:31.325Z,98025.23
2023-01-17T17:36:02.354Z,98025.14
2023-01-17T17:39:30.593Z,98024.48
2023-01-17T17:42:57.733Z,98025.50
2023-01-17T17:46:26.996Z,98032.91
2023-01-17T17:49:54.072Z,98036.30
2023-01-17T17:53:22.131Z,98031.15
2023-01-17T17:56:49.314Z,98035.13
2023-01-17T18:00:21.184Z,98039.67
2023-01-17T18:03:52.513Z,98042.61
2023-01-17T18:07:26.129Z,98046.17
2023-01-17T18:11:01.072Z,98046.29
2023-01-17T18:14:33.274Z,98039.29
2023-01-17T18:18:03.621Z,98044.32
2023-01-17T18:21:33.400Z,98053.74
2023-01-17T18:25:01.056Z,98050.52
2023-01-17T18:28:28.600Z,98047.73
2023-01-17T18:31:57.876Z,98055.60
2023-01-17T18:35:30.535Z,98065.45
2023-01-17T18:38:59.020Z,98072.96
2023-01-17T18:42:34.625Z,98083.15
2023-01-17T18:46:06.101Z,98093.55
2023-01-17T18:49:37.510Z,98104.27
2023-01-17T18:53:06.655Z,98108.46
2023-01-17T18:56:37.870Z,98120.45
2023-01-17T19:00:08.835Z,98126.91
2023-01-17T19:03:38.046Z,98131.02
2023-01-17T19:07:08.159Z,98131.40
2023-01-17T19:10:36.569Z,98132.95
2023-01-17T19:14:09.207Z,98141.21
2023-01-17T19:17:38.514Z,98147.14
2023-01-17T19:21:11.924Z,98155.77
2023-01-17T19:24:42.028Z,98161.45
2023-01-17T19:28:13.575Z,98162.67
2023-01-17T19:31:43.710Z,98172.73
2023-01-17T19:35:14.180Z,98184.14
2023-01-17T19:38:47.314Z,98187.83
2023-01-17T19:42:22.341Z,98191.79
2023-01-17T19:46:00.391Z,98198.14
2023-01-17T19:49:32.479Z,98200.61
2023-01-17T19:53:16.769Z,98202.70
2023-01-17T19:56:43.880Z,98208.66
2023-01-17T20:00:18.437Z,98224.75
2023-01-17T20:03:49.525Z,98237.87
2023-01-17T20:07:18.740Z,98242.85
2023-01-17T20:10:47.236Z,98242.60
2023-01-17T20:14:28.178Z,98239.09
2023-01-17T20:17:57.056Z,98234.64
2023-01-17T20:21:31.864Z,98235.11
2023-01-17T20:25:15.676Z,98237.61
2023-01-17T20:28:47.756Z,98237.87
2023-01-17T20:32:20.917Z,98243.88
2023-01-17T20:35:58.139Z,98251.19
2023-01-17T20:39:33.788Z,98250.52
2023-01-17T20:43:06.244Z,98254.52
2023-01-17T20:46:40.629Z,98254.15
2023-01-17T20:50:11.310Z,98253.00
2023-01-17T20:53:40.239Z,98260.87
2023-01-17T20:57:10.856Z,98266.14
2023-01-17T21:00:51.984Z,98266.73
2023-01-17T21:04:28.239Z,98264.73
2023-01-17T21:07:56.821Z,98274.91
2023-01-17T21:11:27.855Z,98275.42
2023-01-17T21:14:55.963Z,98273.90
2023-01-17T21:18:25.125Z,98277.74
2023-01-17T21:21:52.148Z,98285.75
2023-01-17T21:25:21.849Z,98289.26
2023-01-17T21:28:51.440Z,98290.77
2023-01-17T21:32:23.313Z,98290.09
2023-01-17T21:35:51.201Z,98283.90
2023-01-17T21:39:22.381Z,98278.65
2023-01-17T21:42:54.122Z,98278.50
2023-01-17T21:46:26.366Z,98279.39
2023-01-17T21:49:57.152Z,98285.46
2023-01-17T21:53:28.011Z,98294.23
2023-01-17T21:57:12.610Z,98297.95
2023-01-17T22:00:45.596Z,98283.98
2023-01-17T22:04:16.205Z,98282.41
2023-01-17T22:08:05.968Z,98293.47
2023-01-17T22:11:34.388Z,98316.96
2023-01-17T22:15:02.608Z,98333.91
2023-01-17T22:18:37.974Z,98342.75
2023-01-17T22:22:05.525Z,98345.71
2023-01-17T22:25:34.388Z,98351.57
2023-01-17T22:29:03.992Z,98351.48
2023-01-17T22:32:32.656Z,98354.77
2023-01-17T22:36:03.415Z,98362.98
2023-01-17T22:39:30.780Z,98364.93
2023-01-17T22:43:01.085Z,98358.06
2023-01-17T22:46:29.881Z,98354.34
2023-01-17T22:49:57.786Z,98352.12
2023-01-17T22:53:27.142Z,98355.41
2023-01-17T22:56:55.439Z,98354.32
2023-01-17T23:00:23.844Z,98355.83
2023-01-17T23:03:55.371Z,98352.02
2023-01-17T23:07:27.241Z,98341.32
2023-01-17T23:11:12.510Z,98335.03
2023-01-17T23:14:59.328Z,98320.64
2023-01-17T23:18:56.416Z,98322.82
2023-01-17T23:22:28.263Z,98317.20
2023-01-17T23:26:01.211Z,98307.41
2023-01-17T23:29:28.323Z,98309.08
2023-01-17T23:32:56.928Z,98328.05
2023-01-17T23:36:24.351Z,98338.34
2023-01-17T23:39:53.700Z,98335.13
2023-01-17T23:43:24.860Z,98329.10
2023-01-17T23:46:52.792Z,98318.22
2023-01-17T23:50:20.951Z,98310.84
2023-01-17T23:53:48.449Z,98303.78
2023-01-17T23:57:15.816Z,98304.50
